Time;durP1;ratioP1;P1;durP2;ratioP2;P2;SDS_P1;SDS_P2;PMS_P1;PMS_P2;Temp;Humidity;BMP_temperature;BMP_pressure;BME280_temperature;BME280_humidity;BME280_pressure;Samples;Min_cycle;Max_cycle;Signal;HPM_P1;HPM_P2
2022/03/27 00:01:32;;;;;;;11.48;8.73;;;;;;;;;;5067669;27;97182;-74
2022/03/27 00:03:59;;;;;;;13.13;8.63;;;;;;;;;;5061602;27;95420;-74
2022/03/27 00:06:25;;;;;;;14.82;9.13;;;;;;;;;;5059663;27;96044;-74
2022/03/27 00:08:51;;;;;;;15.90;9.10;;;;;;;;;;5051940;27;95967;-73
2022/03/27 00:11:24;;;;;;;14.70;9.57;;;;;;;;;;5052931;27;95763;-73
2022/03/27 00:13:50;;;;;;;;;;;;;;;;;;5062888;27;96783;-74
2022/03/27 00:16:16;;;;;;;18.17;10.27;;;;;;;;;;5055008;27;118536;-74
2022/03/27 00:18:43;;;;;;;14.40;10.32;;;;;;;;;;5053582;27;96720;-75
2022/03/27 00:21:10;;;;;;;15.40;10.18;;;;;;;;;;5057807;27;97370;-76
2022/03/27 00:23:36;;;;;;;16.85;11.70;;;;;;;;;;5066219;27;95666;-75
2022/03/27 00:26:02;;;;;;;14.75;9.80;;;;;;;;;;5069495;27;96847;-74
2022/03/27 00:28:32;;;;;;;17.77;11.65;;;;;;;;;;5070189;27;97080;-75
2022/03/27 00:30:59;;;;;;;18.02;12.02;;;;;;;;;;5067934;27;95304;-75
2022/03/27 00:33:26;;;;;;;20.38;12.30;;;;;;;;;;5069036;27;96801;-75
2022/03/27 00:35:56;;;;;;;17.95;11.93;;;;;;;;;;5072901;27;97282;-74
2022/03/27 00:38:23;;;;;;;18.40;12.77;;;;;;;;;;5068725;27;96776;-74
2022/03/27 00:40:52;;;;;;;18.92;12.98;;;;;;;;;;5069154;27;96358;-75
2022/03/27 00:43:19;;;;;;;19.00;11.93;;;;;;;;;;5067231;27;95740;-73
2022/03/27 00:45:46;;;;;;;19.23;12.90;;;;;;;;;;5067529;27;96452;-73
2022/03/27 00:48:20;;;;;;;20.08;12.88;;;;;;;;;;5052031;27;97328;-73
2022/03/27 00:50:47;;;;;;;16.02;12.10;;;;;;;;;;5050541;27;95221;-73
2022/03/27 00:53:14;;;;;;;20.05;12.85;;;;;;;;;;5054594;27;97126;-74
2022/03/27 00:55:40;;;;;;;17.27;12.32;;;;;;;;;;5072613;27;97302;-73
2022/03/27 00:58:07;;;;;;;18.15;13.13;;;;;;;;;;5069300;27;96993;-73
2022/03/27 01:00:39;;;;;;;18.70;12.88;;;;;;;;;;5059420;27;97691;-74
2022/03/27 01:03:06;;;;;;;19.75;13.55;;;;;;;;;;5063854;27;96018;-73
2022/03/27 01:05:32;;;;;;;21.30;13.20;;;;;;;;;;5058050;27;97229;-74
2022/03/27 01:08:01;;;;;;;21.42;12.38;;;;;;;;;;5061222;27;97393;-74
2022/03/27 01:10:27;;;;;;;16.80;11.93;;;;;;;;;;5068707;27;95827;-75
2022/03/27 01:12:53;;;;;;;19.30;12.27;;;;;;;;;;5063899;27;96874;-73
2022/03/27 01:15:46;;;;;;;26.90;12.90;;;;;;;;;;5048496;27;96249;-73
2022/03/27 01:18:12;;;;;;;;;;;;;;;;;;5050428;27;95326;-75
2022/03/27 01:20:39;;;;;;;20.52;12.20;;;;;;;;;;5054840;27;126305;-72
2022/03/27 01:23:11;;;;;;;17.05;11.63;;;;;;;;;;5058410;27;95348;-73
2022/03/27 01:25:37;;;;;;;16.50;11.17;;;;;;;;;;5059376;27;97202;-73
2022/03/27 01:28:05;;;;;;;22.00;13.43;;;;;;;;;;5062281;27;97376;-73
2022/03/27 01:30:31;;;;;;;19.75;12.88;;;;;;;;;;5060758;27;96015;-73
2022/03/27 01:32:57;;;;;;;23.73;13.20;;;;;;;;;;5069010;27;97149;-73
2022/03/27 01:35:24;;;;;;;20.35;13.10;;;;;;;;;;5067496;27;97197;-74
2022/03/27 01:37:50;;;;;;;20.48;11.75;;;;;;;;;;5064738;27;95443;-73
2022/03/27 01:40:20;;;;;;;18.05;11.90;;;;;;;;;;5061851;27;96827;-74
2022/03/27 01:42:46;;;;;;;19.77;11.85;;;;;;;;;;5066869;27;95426;-73
2022/03/27 01:45:13;;;;;;;20.00;12.25;;;;;;;;;;5055778;27;97129;-74
2022/03/27 01:47:39;;;;;;;18.90;11.50;;;;;;;;;;5051353;27;97329;-74
2022/03/27 01:50:06;;;;;;;21.55;12.75;;;;;;;;;;5059031;27;95427;-73
2022/03/27 01:52:33;;;;;;;18.63;11.20;;;;;;;;;;5059832;27;96774;-73
2022/03/27 01:54:59;;;;;;;21.05;11.88;;;;;;;;;;5062130;27;97503;-73
2022/03/27 01:57:26;;;;;;;20.83;11.98;;;;;;;;;;5067641;27;95336;-73
2022/03/27 01:59:52;;;;;;;16.63;11.10;;;;;;;;;;5058179;27;97008;-71
2022/03/27 02:02:23;;;;;;;21.58;12.93;;;;;;;;;;5052033;27;97351;-74
2022/03/27 02:04:50;;;;;;;19.27;11.05;;;;;;;;;;5064625;27;96639;-73
2022/03/27 02:07:18;;;;;;;19.15;11.75;;;;;;;;;;5065350;27;97255;-74
2022/03/27 02:09:44;;;;;;;21.65;13.32;;;;;;;;;;5052156;27;95713;-74
2022/03/27 02:12:11;;;;;;;22.25;13.57;;;;;;;;;;5048686;27;97274;-73
2022/03/27 02:14:37;;;;;;;24.65;13.43;;;;;;;;;;5048698;27;96528;-74
2022/03/27 02:17:04;;;;;;;22.70;14.52;;;;;;;;;;5065365;27;96020;-73
2022/03/27 02:19:30;;;;;;;24.67;13.75;;;;;;;;;;5062168;27;96765;-73
2022/03/27 02:21:56;;;;;;;23.23;12.93;;;;;;;;;;5058192;27;97805;-74
2022/03/27 02:24:23;;;;;;;25.48;13.93;;;;;;;;;;5065627;27;95371;-73
2022/03/27 02:26:50;;;;;;;24.25;13.95;;;;;;;;;;5060581;27;96288;-73
2022/03/27 02:29:16;;;;;;;26.20;12.95;;;;;;;;;;5048539;27;95612;-73
2022/03/27 02:31:43;;;;;;;20.13;11.38;;;;;;;;;;5053117;27;97954;-73
2022/03/27 02:34:10;;;;;;;18.65;11.00;;;;;;;;;;5059361;27;97366;-73
2022/03/27 02:36:36;;;;;;;18.88;10.32;;;;;;;;;;5066026;27;96827;-72
2022/03/27 02:39:03;;;;;;;21.13;10.82;;;;;;;;;;5050814;27;96772;-74
2022/03/27 02:41:29;;;;;;;19.52;10.93;;;;;;;;;;5062179;27;97364;-73
2022/03/27 02:43:55;;;;;;;17.63;10.85;;;;;;;;;;5048696;27;95352;-73
2022/03/27 02:46:22;;;;;;;16.48;10.23;;;;;;;;;;5059648;27;96828;-73
2022/03/27 02:48:48;;;;;;;21.90;11.13;;;;;;;;;;5065209;27;95562;-73
2022/03/27 02:51:15;;;;;;;21.15;11.82;;;;;;;;;;5059039;27;96980;-73
2022/03/27 02:53:41;;;;;;;19.40;11.32;;;;;;;;;;5070067;27;97253;-73
2022/03/27 02:56:08;;;;;;;25.65;10.80;;;;;;;;;;5054681;27;95351;-74
2022/03/27 02:58:35;;;;;;;26.08;12.32;;;;;;;;;;5065971;27;96575;-72
2022/03/27 03:01:02;;;;;;;24.63;13.13;;;;;;;;;;5070395;27;97475;-73
2022/03/27 03:03:29;;;;;;;29.17;13.95;;;;;;;;;;5068963;27;95501;-73
2022/03/27 03:05:57;;;;;;;25.30;13.55;;;;;;;;;;5059035;27;96713;-72
2022/03/27 03:08:26;;;;;;;24.52;12.93;;;;;;;;;;5058536;27;95477;-72
2022/03/27 03:10:52;;;;;;;25.80;13.52;;;;;;;;;;5070656;27;96789;-73
2022/03/27 03:13:18;;;;;;;24.40;12.13;;;;;;;;;;5068639;27;96722;-73
2022/03/27 03:15:45;;;;;;;25.17;13.48;;;;;;;;;;5070498;27;95709;-73
2022/03/27 03:18:12;;;;;;;23.42;12.77;;;;;;;;;;5068034;27;96744;-74
2022/03/27 03:20:39;;;;;;;23.05;11.75;;;;;;;;;;5067084;27;98918;-72
2022/03/27 03:23:07;;;;;;;26.23;13.55;;;;;;;;;;5070664;27;95123;-74
2022/03/27 03:25:33;;;;;;;22.05;11.93;;;;;;;;;;5069985;27;96882;-74
2022/03/27 03:28:19;;;;;;;19.45;11.57;;;;;;;;;;5057754;27;96156;-74
2022/03/27 03:30:45;;;;;;;20.92;12.23;;;;;;;;;;5068811;27;95922;-74
2022/03/27 03:33:12;;;;;;;20.80;11.88;;;;;;;;;;5069211;27;97499;-74
2022/03/27 03:35:39;;;;;;;20.13;11.57;;;;;;;;;;5049599;27;95336;-75
2022/03/27 03:38:08;;;;;;;27.95;12.13;;;;;;;;;;5051030;27;97069;-73
2022/03/27 03:40:35;;;;;;;19.25;10.80;;;;;;;;;;5064763;27;97949;-74
2022/03/27 03:43:01;;;;;;;18.50;11.00;;;;;;;;;;5056382;27;95358;-74
2022/03/27 03:45:27;;;;;;;18.33;10.30;;;;;;;;;;5051193;27;96787;-75
2022/03/27 03:47:54;;;;;;;19.65;11.07;;;;;;;;;;5056961;27;97492;-75
2022/03/27 03:50:21;;;;;;;19.30;10.18;;;;;;;;;;5067089;27;96797;-73
2022/03/27 03:52:47;;;;;;;18.25;10.57;;;;;;;;;;5061616;27;97317;-73
2022/03/27 03:55:14;;;;;;;18.05;9.52;;;;;;;;;;5053625;27;95717;-74
2022/03/27 03:57:40;;;;;;;20.55;10.50;;;;;;;;;;5060131;27;96720;-74
2022/03/27 04:00:06;;;;;;;20.50;10.07;;;;;;;;;;5069929;27;97251;-74
2022/03/27 04:02:33;;;;;;;18.17;9.45;;;;;;;;;;5060523;27;96016;-73
2022/03/27 04:05:01;;;;;;;16.60;9.10;;;;;;;;;;5061816;27;97034;-74
2022/03/27 04:07:27;;;;;;;17.23;9.73;;;;;;;;;;5069446;27;97141;-74
2022/03/27 04:09:53;;;;;;;18.92;10.68;;;;;;;;;;5069331;27;95549;-74
2022/03/27 04:12:24;;;;;;;19.60;9.68;;;;;;;;;;5073224;27;96527;-74
2022/03/27 04:14:50;;;;;;;21.98;10.70;;;;;;;;;;5057602;27;96029;-74
2022/03/27 04:17:16;;;;;;;18.33;10.32;;;;;;;;;;5049961;27;96741;-74
2022/03/27 04:19:42;;;;;;;22.20;10.63;;;;;;;;;;5048773;27;97290;-73
2022/03/27 04:22:09;;;;;;;17.48;9.75;;;;;;;;;;5062581;27;95272;-74
2022/03/27 04:24:35;;;;;;;20.85;10.32;;;;;;;;;;5068158;27;97012;-73
2022/03/27 04:27:01;;;;;;;20.48;10.73;;;;;;;;;;5068099;27;97034;-73
2022/03/27 04:29:28;;;;;;;24.17;11.13;;;;;;;;;;5055461;27;95400;-74
2022/03/27 04:31:54;;;;;;;21.60;10.90;;;;;;;;;;5049026;27;97153;-73
2022/03/27 04:34:20;;;;;;;23.25;11.77;;;;;;;;;;5061412;27;97284;-74
2022/03/27 04:36:47;;;;;;;22.88;11.98;;;;;;;;;;5068873;27;96657;-74
2022/03/27 04:39:14;;;;;;;20.27;11.38;;;;;;;;;;5059570;27;96287;-74
2022/03/27 04:41:40;;;;;;;23.08;12.82;;;;;;;;;;5050205;27;95675;-73
2022/03/27 04:44:08;;;;;;;24.48;11.73;;;;;;;;;;5067091;27;95781;-73
2022/03/27 04:46:34;;;;;;;22.30;11.45;;;;;;;;;;5067644;27;97435;-72
2022/03/27 04:49:01;;;;;;;22.67;11.25;;;;;;;;;;5066207;27;95735;-73
2022/03/27 04:51:27;;;;;;;19.73;11.32;;;;;;;;;;5049475;27;95842;-74
2022/03/27 04:53:54;;;;;;;20.55;10.88;;;;;;;;;;5057355;27;97394;-73
2022/03/27 04:56:20;;;;;;;21.30;12.27;;;;;;;;;;5062129;27;95225;-74
2022/03/27 04:58:46;;;;;;;23.15;12.40;;;;;;;;;;5068882;27;97374;-73
2022/03/27 05:01:13;;;;;;;24.95;13.18;;;;;;;;;;5068491;27;95491;-73
2022/03/27 05:03:40;;;;;;;24.58;12.27;;;;;;;;;;5063109;27;97074;-73
2022/03/27 05:06:07;;;;;;;20.80;10.90;;;;;;;;;;5052724;27;97146;-73
2022/03/27 19:07:38;;;;;;;23.10;4.72;;;;;;;;;;5088955;27;95652;-74
2022/03/27 19:10:05;;;;;;;20.92;4.55;;;;;;;;;;5086871;27;97246;-74
2022/03/27 19:12:31;;;;;;;18.33;4.45;;;;;;;;;;5051413;27;95532;-73
2022/03/27 19:14:58;;;;;;;18.67;4.38;;;;;;;;;;5072658;27;96751;-73
2022/03/27 19:17:33;;;;;;;18.65;5.32;;;;;;;;;;5069719;27;97779;-74
2022/03/27 19:20:00;;;;;;;23.23;5.45;;;;;;;;;;5079288;27;95693;-74
2022/03/27 19:22:29;;;;;;;25.33;5.78;;;;;;;;;;5078212;27;96675;-75
2022/03/27 19:24:56;;;;;;;24.33;6.82;;;;;;;;;;5085688;27;97604;-74
2022/03/27 19:27:22;;;;;;;29.15;6.80;;;;;;;;;;5089297;27;95544;-72
2022/03/27 19:29:49;;;;;;;23.05;6.63;;;;;;;;;;5086626;27;97263;-74
2022/03/27 19:32:15;;;;;;;22.10;6.85;;;;;;;;;;5078782;27;95729;-75
2022/03/27 19:34:41;;;;;;;25.65;7.05;;;;;;;;;;5085962;27;96837;-74
2022/03/27 19:37:08;;;;;;;30.33;6.70;;;;;;;;;;5067025;27;97330;-74
2022/03/27 19:39:35;;;;;;;24.70;6.75;;;;;;;;;;5079515;27;95837;-73
2022/03/27 19:42:01;;;;;;;26.98;7.53;;;;;;;;;;5079359;27;97540;-74
2022/03/27 19:44:28;;;;;;;27.17;7.43;;;;;;;;;;5065521;27;97669;-74
2022/03/27 19:46:54;;;;;;;32.78;9.45;;;;;;;;;;5071684;27;95767;-73
2022/03/27 19:49:20;;;;;;;24.05;6.95;;;;;;;;;;5085856;27;96675;-73
2022/03/27 19:51:47;;;;;;;27.00;6.43;;;;;;;;;;5070604;27;95327;-74
2022/03/27 19:54:13;;;;;;;24.98;7.20;;;;;;;;;;5074166;27;96702;-73
2022/03/27 19:56:41;;;;;;;32.70;9.45;;;;;;;;;;5067006;27;97362;-74
2022/03/27 19:59:08;;;;;;;24.35;7.50;;;;;;;;;;5076255;27;95789;-73
2022/03/27 20:01:35;;;;;;;24.73;6.20;;;;;;;;;;5065934;27;96772;-73
2022/03/27 20:04:01;;;;;;;22.30;5.55;;;;;;;;;;5083827;27;97361;-73
2022/03/27 20:06:28;;;;;;;23.20;5.07;;;;;;;;;;5092294;27;95928;-73
2022/03/27 20:08:54;;;;;;;25.02;5.80;;;;;;;;;;5104336;27;96999;-73
2022/03/27 20:11:20;;;;;;;24.45;5.65;;;;;;;;;;5090958;27;97294;-73
2022/03/27 20:13:48;;;;;;;20.40;6.18;;;;;;;;;;5102041;27;96675;-73
2022/03/27 20:16:15;;;;;;;28.75;6.20;;;;;;;;;;5095863;27;97627;-73
2022/03/27 20:18:43;;;;;;;27.35;6.78;;;;;;;;;;5086392;27;95519;-73
2022/03/27 20:21:09;;;;;;;25.40;6.38;;;;;;;;;;5090308;27;96200;-73
2022/03/27 20:23:35;;;;;;;26.88;6.82;;;;;;;;;;5070643;27;97612;-73
2022/03/27 20:26:03;;;;;;;21.15;8.02;;;;;;;;;;5052992;27;95237;-74
2022/03/27 20:28:29;;;;;;;25.10;8.48;;;;;;;;;;5071162;27;97462;-73
2022/03/27 20:30:56;;;;;;;28.65;8.23;;;;;;;;;;5052498;27;96384;-73
2022/03/27 20:33:22;;;;;;;31.67;8.50;;;;;;;;;;5059547;27;95568;-72
2022/03/27 20:35:49;;;;;;;21.13;7.53;;;;;;;;;;5070892;27;97357;-73
2022/03/27 20:38:16;;;;;;;20.00;7.80;;;;;;;;;;5071624;27;95670;-73
2022/03/27 20:40:44;;;;;;;27.63;8.27;;;;;;;;;;5053259;27;96766;-73
2022/03/27 20:43:11;;;;;;;23.00;7.00;;;;;;;;;;5070645;27;96101;-73
2022/03/27 20:45:38;;;;;;;31.25;7.50;;;;;;;;;;5072271;27;95212;-72
2022/03/27 20:48:08;;;;;;;23.80;5.90;;;;;;;;;;5071392;27;95757;-73
2022/03/27 20:50:36;;;;;;;26.40;5.50;;;;;;;;;;5070693;27;96120;-73
2022/03/27 20:53:03;;;;;;;26.85;6.13;;;;;;;;;;5071314;27;95257;-73
2022/03/27 20:55:29;;;;;;;27.95;5.47;;;;;;;;;;5074677;27;96673;-72
2022/03/27 20:57:56;;;;;;;23.20;5.65;;;;;;;;;;5072376;27;95141;-73
2022/03/27 21:00:22;;;;;;;27.63;5.50;;;;;;;;;;5072220;27;96635;-73
2022/03/27 21:02:49;;;;;;;30.02;5.85;;;;;;;;;;5070727;27;97763;-73
2022/03/27 21:05:15;;;;;;;26.17;5.30;;;;;;;;;;5071104;27;95776;-73
2022/03/27 21:07:41;;;;;;;23.05;5.72;;;;;;;;;;5072228;27;96793;-72
2022/03/27 21:10:07;;;;;;;23.48;5.38;;;;;;;;;;5070981;27;97052;-73
2022/03/27 21:12:34;;;;;;;27.55;6.53;;;;;;;;;;5060764;27;96376;-73
2022/03/27 21:15:00;;;;;;;19.92;4.97;;;;;;;;;;5071693;27;96565;-74
2022/03/27 21:17:27;;;;;;;21.65;5.32;;;;;;;;;;5074151;27;95509;-74
2022/03/27 21:19:53;;;;;;;29.73;5.65;;;;;;;;;;5072259;27;97055;-75
2022/03/27 21:22:19;;;;;;;27.90;5.47;;;;;;;;;;5070806;27;97289;-74
2022/03/27 21:24:46;;;;;;;23.55;4.93;;;;;;;;;;5071334;27;95725;-73
2022/03/27 21:27:12;;;;;;;27.67;5.75;;;;;;;;;;5071723;27;96927;-74
2022/03/27 21:29:38;;;;;;;19.73;4.93;;;;;;;;;;5069620;27;96933;-74
2022/03/27 21:32:09;;;;;;;20.02;4.80;;;;;;;;;;5070730;27;95346;-73
2022/03/27 21:34:35;;;;;;;19.75;4.75;;;;;;;;;;5071995;27;96820;-74
2022/03/27 21:37:02;;;;;;;23.48;5.30;;;;;;;;;;5074227;27;96950;-74
2022/03/27 21:39:28;;;;;;;21.70;4.82;;;;;;;;;;5071461;27;97359;-74
2022/03/27 21:41:57;;;;;;;20.30;4.55;;;;;;;;;;5071081;27;97274;-74
2022/03/27 21:44:24;;;;;;;31.63;5.00;;;;;;;;;;5070923;27;95612;-74
2022/03/27 21:46:54;;;;;;;18.58;4.45;;;;;;;;;;5072023;27;95592;-74
2022/03/27 21:49:20;;;;;;;25.35;5.03;;;;;;;;;;5070807;27;97558;-73
2022/03/27 21:51:46;;;;;;;18.77;4.80;;;;;;;;;;5071057;27;95406;-73
2022/03/27 21:54:13;;;;;;;24.40;4.55;;;;;;;;;;5070737;27;96614;-74
2022/03/27 21:56:39;;;;;;;21.92;5.22;;;;;;;;;;5070941;27;97357;-73
2022/03/27 21:59:05;;;;;;;23.85;5.13;;;;;;;;;;5073471;27;96818;-73
2022/03/27 22:01:32;;;;;;;23.70;4.72;;;;;;;;;;5070379;27;96348;-73
2022/03/27 22:03:59;;;;;;;27.05;5.05;;;;;;;;;;5070965;27;95315;-74
2022/03/27 22:06:25;;;;;;;23.42;5.30;;;;;;;;;;5070089;27;96669;-72
2022/03/27 22:08:51;;;;;;;24.17;4.88;;;;;;;;;;5070309;27;96727;-73
2022/03/27 22:11:18;;;;;;;19.45;4.32;;;;;;;;;;5071474;27;95459;-73
2022/03/27 22:13:44;;;;;;;26.27;5.32;;;;;;;;;;5083781;27;96733;-72
2022/03/27 22:16:16;;;;;;;26.30;3.97;;;;;;;;;;5090938;27;97217;-73
2022/03/27 22:18:42;;;;;;;31.48;5.35;;;;;;;;;;5091684;27;95581;-73
2022/03/27 22:21:09;;;;;;;29.90;6.85;;;;;;;;;;5076110;27;96775;-73
2022/03/27 22:23:35;;;;;;;22.38;4.68;;;;;;;;;;5081968;27;95353;-74
2022/03/27 22:26:02;;;;;;;24.55;5.25;;;;;;;;;;5091106;27;96636;-73
2022/03/27 22:28:28;;;;;;;30.02;5.15;;;;;;;;;;5090717;27;97548;-73
2022/03/27 22:30:57;;;;;;;22.88;4.32;;;;;;;;;;5076028;27;95407;-73
2022/03/27 22:33:44;;;;;;;22.70;5.13;;;;;;;;;;5082932;27;99117;-73
2022/03/27 22:36:11;;;;;;;23.15;4.90;;;;;;;;;;5090535;27;97512;-74
2022/03/27 22:38:37;;;;;;;31.25;5.50;;;;;;;;;;5090893;27;95773;-74
2022/03/27 22:41:04;;;;;;;24.50;4.95;;;;;;;;;;5088211;27;96725;-73
2022/03/27 22:43:31;;;;;;;19.67;4.38;;;;;;;;;;5086254;27;97292;-73
2022/03/27 22:45:57;;;;;;;25.10;5.05;;;;;;;;;;5070379;27;96786;-74
2022/03/27 22:48:24;;;;;;;25.52;5.20;;;;;;;;;;5069957;27;97259;-74
2022/03/27 22:50:50;;;;;;;22.60;4.78;;;;;;;;;;5079083;27;95350;-73
2022/03/27 22:53:17;;;;;;;22.95;4.70;;;;;;;;;;5085420;27;96754;-74
2022/03/27 22:55:43;;;;;;;25.25;4.63;;;;;;;;;;5070099;27;97285;-74
2022/03/27 22:58:13;;;;;;;25.58;4.97;;;;;;;;;;5070046;27;95287;-75
2022/03/27 23:00:40;;;;;;;23.20;4.60;;;;;;;;;;5077515;27;96832;-73
2022/03/27 23:03:06;;;;;;;21.60;4.72;;;;;;;;;;5086261;27;97357;-74
2022/03/27 23:05:33;;;;;;;25.85;5.03;;;;;;;;;;5073012;27;95647;-72
2022/03/27 23:07:59;;;;;;;27.70;5.10;;;;;;;;;;5069885;27;97619;-73
2022/03/27 23:10:26;;;;;;;19.33;4.45;;;;;;;;;;5070835;27;95386;-73
2022/03/27 23:12:52;;;;;;;34.28;6.18;;;;;;;;;;5069190;27;95806;-73
2022/03/27 23:15:18;;;;;;;30.35;4.85;;;;;;;;;;5070535;27;97425;-73
2022/03/27 23:17:45;;;;;;;16.73;4.60;;;;;;;;;;5050367;27;95275;-73
2022/03/27 23:20:11;;;;;;;28.02;4.60;;;;;;;;;;5069498;27;97272;-73
2022/03/27 23:22:38;;;;;;;27.95;4.72;;;;;;;;;;5073152;27;97672;-73
2022/03/27 23:25:05;;;;;;;30.55;4.85;;;;;;;;;;5072304;27;95497;-73
2022/03/27 23:27:32;;;;;;;24.45;4.70;;;;;;;;;;5068857;27;96882;-73
2022/03/27 23:29:58;;;;;;;24.35;5.07;;;;;;;;;;5078616;27;95521;-73
2022/03/27 23:32:25;;;;;;;31.05;5.97;;;;;;;;;;5078165;27;96869;-74
2022/03/27 23:34:51;;;;;;;24.73;5.13;;;;;;;;;;5069100;27;96987;-73
2022/03/27 23:37:18;;;;;;;26.45;5.47;;;;;;;;;;5068816;27;96783;-74
2022/03/27 23:39:44;;;;;;;23.48;6.03;;;;;;;;;;5077981;27;96824;-74
2022/03/27 23:42:10;;;;;;;29.92;5.55;;;;;;;;;;5079156;27;96384;-74
2022/03/27 23:44:37;;;;;;;27.85;5.70;;;;;;;;;;5068601;27;95315;-74
2022/03/27 23:47:04;;;;;;;26.63;5.20;;;;;;;;;;5071962;27;96941;-74
2022/03/27 23:49:30;;;;;;;28.08;4.80;;;;;;;;;;5072465;27;95939;-73
2022/03/27 23:51:58;;;;;;;31.35;6.32;;;;;;;;;;5084556;27;96644;-73
2022/03/27 23:54:24;;;;;;;26.05;5.70;;;;;;;;;;5072383;27;97641;-73
2022/03/27 23:56:50;;;;;;;26.15;5.53;;;;;;;;;;5072722;27;95184;-74
2022/03/27 23:59:17;;;;;;;23.70;5.53;;;;;;;;;;5072111;27;96489;-72
